createdAt,value
2023-06-04T00:01:30.011Z,17.30
2023-06-04T00:03:58.114Z,17.20
2023-06-04T00:06:26.212Z,17.10
2023-06-04T00:08:54.177Z,17.00
2023-06-04T00:11:23.969Z,16.90
2023-06-04T00:13:52.045Z,16.80
2023-06-04T00:16:25.272Z,16.70
2023-06-04T00:18:53.300Z,16.70
2023-06-04T00:21:22.595Z,16.60
2023-06-04T00:23:50.683Z,16.50
2023-06-04T00:26:18.856Z,16.40
2023-06-04T00:28:49.779Z,16.40
2023-06-04T00:31:19.848Z,16.40
2023-06-04T00:33:48.180Z,16.30
2023-06-04T00:36:20.423Z,16.30
2023-06-04T00:38:51.862Z,16.20
2023-06-04T00:41:20.068Z,16.10
2023-06-04T00:43:56.612Z,16.10
2023-06-04T00:46:35.026Z,16.00
2023-06-04T00:49:02.993Z,16.00
2023-06-04T00:51:33.191Z,16.10
2023-06-04T00:54:02.711Z,16.10
2023-06-04T00:56:31.091Z,16.00
2023-06-04T00:59:01.265Z,16.00
2023-06-04T01:01:38.592Z,15.90
2023-06-04T01:04:11.412Z,15.90
2023-06-04T01:06:44.915Z,15.80
2023-06-04T01:09:13.606Z,15.70
2023-06-04T01:11:42.350Z,15.60
2023-06-04T01:14:12.113Z,15.50
2023-06-04T01:16:45.108Z,15.40
2023-06-04T01:19:38.705Z,15.40
2023-06-04T01:22:21.931Z,15.50
2023-06-04T01:24:58.594Z,15.40
2023-06-04T01:27:27.130Z,15.30
2023-06-04T01:29:58.011Z,15.20
2023-06-04T01:32:27.353Z,15.20
2023-06-04T01:35:02.764Z,15.20
2023-06-04T01:37:30.799Z,15.20
2023-06-04T01:39:58.763Z,15.10
2023-06-04T01:42:26.806Z,15.00
2023-06-04T01:44:56.170Z,15.00
2023-06-04T01:47:24.178Z,14.90
2023-06-04T01:49:52.137Z,14.90
2023-06-04T01:52:22.174Z,14.90
2023-06-04T01:54:53.642Z,14.80
2023-06-04T01:57:22.325Z,14.80
2023-06-04T01:59:50.833Z,14.80
2023-06-04T02:02:21.273Z,14.70
2023-06-04T02:04:52.683Z,14.70
2023-06-04T02:07:21.858Z,14.60
2023-06-04T02:09:53.151Z,14.60
2023-06-04T02:12:21.838Z,14.50
2023-06-04T02:14:49.919Z,14.60
2023-06-04T02:17:17.865Z,14.60
2023-06-04T02:19:50.971Z,14.60
2023-06-04T02:22:19.660Z,14.50
2023-06-04T02:24:49.016Z,14.50
2023-06-04T02:27:16.983Z,14.40
2023-06-04T02:29:45.060Z,14.40
2023-06-04T02:32:13.557Z,14.30
2023-06-04T02:34:41.431Z,14.30
2023-06-04T02:37:10.661Z,14.30
2023-06-04T02:39:38.555Z,14.30
2023-06-04T02:42:07.175Z,14.20
2023-06-04T02:44:35.137Z,14.20
2023-06-04T02:47:03.277Z,14.20
2023-06-04T02:49:31.289Z,14.20
2023-06-04T02:51:59.246Z,14.20
2023-06-04T02:54:28.561Z,14.20
2023-06-04T02:56:56.876Z,14.20
2023-06-04T02:59:25.406Z,14.20
2023-06-04T03:01:53.903Z,14.20
2023-06-04T03:04:22.398Z,14.10
2023-06-04T03:06:58.854Z,14.10
2023-06-04T03:09:28.887Z,14.10
2023-06-04T03:11:57.128Z,14.10
2023-06-04T03:14:33.481Z,14.00
2023-06-04T03:17:08.647Z,14.10
2023-06-04T03:19:37.963Z,14.00
2023-06-04T03:22:07.395Z,14.00
2023-06-04T03:24:39.121Z,14.00
2023-06-04T03:27:09.271Z,14.00
2023-06-04T03:29:37.741Z,14.00
2023-06-04T03:32:06.661Z,13.90
2023-06-04T03:34:35.814Z,13.90
2023-06-04T03:37:04.126Z,13.90
2023-06-04T03:39:32.164Z,13.90
2023-06-04T03:42:01.708Z,13.90
2023-06-04T03:44:30.098Z,13.90
2023-06-04T03:46:58.351Z,13.90
2023-06-04T03:49:26.363Z,13.80
2023-06-04T03:51:54.473Z,13.90
2023-06-04T03:54:23.453Z,13.80
2023-06-04T03:56:51.570Z,13.80
2023-06-04T03:59:25.060Z,13.90
2023-06-04T04:01:53.085Z,14.00
2023-06-04T04:04:21.313Z,14.00
2023-06-04T04:06:54.697Z,14.10
2023-06-04T04:09:32.260Z,14.10
2023-06-04T04:12:00.329Z,14.10
2023-06-04T04:14:33.885Z,14.10
2023-06-04T04:17:11.040Z,14.10
2023-06-04T04:19:40.356Z,14.20
2023-06-04T04:22:18.429Z,14.30
2023-06-04T04:24:46.857Z,14.30
2023-06-04T04:27:16.763Z,14.30
2023-06-04T04:29:49.368Z,14.30
2023-06-04T04:32:22.924Z,14.40
2023-06-04T04:34:55.766Z,14.30
2023-06-04T04:37:28.256Z,14.30
2023-06-04T04:40:05.447Z,14.30
2023-06-04T04:42:37.175Z,14.40
2023-06-04T04:45:07.558Z,14.40
2023-06-04T04:47:35.611Z,14.40
2023-06-04T04:50:03.638Z,14.50
2023-06-04T04:52:31.554Z,14.50
2023-06-04T04:54:59.623Z,14.50
2023-06-04T04:57:27.760Z,14.70
2023-06-04T04:59:55.645Z,14.80
2023-06-04T05:02:25.154Z,14.90
2023-06-04T05:04:53.270Z,15.10
2023-06-04T05:07:24.375Z,15.30
2023-06-04T05:09:52.622Z,15.40
2023-06-04T05:12:20.934Z,15.60
2023-06-04T05:14:49.514Z,15.80
2023-06-04T05:17:22.687Z,16.00
2023-06-04T05:19:57.382Z,16.20
2023-06-04T05:22:32.760Z,16.50
2023-06-04T05:25:01.458Z,16.70
2023-06-04T05:27:29.487Z,16.90
2023-06-04T05:29:57.428Z,17.10
2023-06-04T05:32:29.514Z,17.30
2023-06-04T05:34:59.720Z,17.40
2023-06-04T05:37:29.582Z,17.50
2023-06-04T05:39:57.693Z,17.60
2023-06-04T05:42:26.053Z,17.70
2023-06-04T05:44:54.131Z,17.90
2023-06-04T05:47:22.418Z,18.20
2023-06-04T05:49:53.637Z,18.30
2023-06-04T05:52:25.818Z,18.50
2023-06-04T05:54:58.806Z,18.50
2023-06-04T05:57:40.647Z,18.60
2023-06-04T06:00:11.718Z,18.70
2023-06-04T06:02:39.925Z,18.70
2023-06-04T06:05:09.258Z,18.80
2023-06-04T06:07:38.748Z,18.80
2023-06-04T06:10:08.199Z,18.70
2023-06-04T06:12:36.215Z,18.90
2023-06-04T06:15:04.549Z,18.90
2023-06-04T06:17:33.652Z,19.00
2023-06-04T06:20:01.669Z,19.10
2023-06-04T06:22:29.664Z,19.10
2023-06-04T06:24:59.193Z,19.00
2023-06-04T06:27:27.494Z,19.00
2023-06-04T06:29:58.045Z,19.00
2023-06-04T06:32:32.031Z,18.80
2023-06-04T06:35:03.218Z,18.60
2023-06-04T06:37:32.891Z,18.70
2023-06-04T06:40:05.432Z,18.60
2023-06-04T06:42:35.160Z,18.60
2023-06-04T06:45:07.771Z,18.70
2023-06-04T06:47:35.713Z,18.70
2023-06-04T06:50:04.332Z,18.70
2023-06-04T06:52:34.380Z,18.60
2023-06-04T06:55:05.130Z,18.60
2023-06-04T06:57:34.489Z,18.70
2023-06-04T07:00:02.385Z,18.70
2023-06-04T07:02:30.931Z,18.80
2023-06-04T07:04:58.868Z,18.80
2023-06-04T07:07:27.742Z,18.90
2023-06-04T07:09:55.685Z,18.90
2023-06-04T07:12:24.956Z,19.00
2023-06-04T07:14:52.882Z,19.10
2023-06-04T07:17:21.415Z,19.20
2023-06-04T07:19:52.257Z,19.40
2023-06-04T07:22:23.158Z,19.40
2023-06-04T07:24:54.047Z,19.60
2023-06-04T07:27:23.441Z,19.80
2023-06-04T07:29:52.830Z,20.00
2023-06-04T07:32:20.809Z,20.10
2023-06-04T07:34:48.858Z,20.20
2023-06-04T07:37:16.768Z,20.40
2023-06-04T07:39:44.713Z,20.40
2023-06-04T07:42:12.698Z,20.60
2023-06-04T07:44:41.886Z,20.90
2023-06-04T07:47:11.149Z,21.10
2023-06-04T07:49:47.412Z,21.20
2023-06-04T07:52:22.177Z,21.30
2023-06-04T07:54:50.086Z,21.30
2023-06-04T07:57:18.053Z,21.00
2023-06-04T07:59:45.937Z,21.00
2023-06-04T08:02:15.959Z,20.70
2023-06-04T08:04:44.116Z,20.60
2023-06-04T08:07:12.157Z,20.60
2023-06-04T08:09:40.057Z,20.50
2023-06-04T08:12:10.587Z,20.40
2023-06-04T08:14:38.831Z,20.30
2023-06-04T08:17:06.843Z,20.30
2023-06-04T08:19:36.162Z,20.40
2023-06-04T08:22:04.976Z,20.60
2023-06-04T08:24:32.864Z,20.60
2023-06-04T08:27:00.854Z,20.70
2023-06-04T08:29:28.788Z,20.90
2023-06-04T08:31:56.726Z,21.00
2023-06-04T08:34:24.712Z,21.10
2023-06-04T08:36:53.936Z,21.20
2023-06-04T08:39:24.148Z,21.20
2023-06-04T08:41:54.398Z,21.30
2023-06-04T08:44:22.488Z,21.40
2023-06-04T08:46:54.356Z,21.50
2023-06-04T08:49:24.112Z,21.60
2023-06-04T08:51:53.452Z,21.80
2023-06-04T08:54:21.497Z,21.80
2023-06-04T08:56:52.978Z,21.70
2023-06-04T08:59:21.622Z,21.90
2023-06-04T09:01:50.231Z,21.90
2023-06-04T09:04:18.981Z,21.90
2023-06-04T09:06:47.668Z,22.00
2023-06-04T09:09:18.977Z,22.10
2023-06-04T09:11:51.407Z,22.20
2023-06-04T09:14:19.499Z,22.30
2023-06-04T09:16:48.876Z,22.40
2023-06-04T09:19:17.353Z,22.40
2023-06-04T09:21:52.626Z,22.60
2023-06-04T09:24:22.762Z,22.80
2023-06-04T09:26:51.514Z,22.90
2023-06-04T09:29:19.974Z,23.10
2023-06-04T09:31:48.557Z,23.30
2023-06-04T09:34:16.815Z,23.40
2023-06-04T09:36:44.813Z,23.20
2023-06-04T09:39:19.108Z,23.10
2023-06-04T09:42:00.633Z,23.00
2023-06-04T09:44:28.516Z,22.90
2023-06-04T09:46:57.393Z,23.00
2023-06-04T09:49:25.638Z,22.90
2023-06-04T09:51:53.704Z,22.90
2023-06-04T09:54:21.972Z,22.90
2023-06-04T09:56:51.394Z,23.00
2023-06-04T09:59:20.058Z,23.10
2023-06-04T10:01:49.101Z,23.30
2023-06-04T10:04:17.980Z,23.40
2023-06-04T10:06:46.905Z,23.40
2023-06-04T10:09:16.417Z,23.50
2023-06-04T10:11:54.925Z,23.40
2023-06-04T10:14:25.154Z,23.50
2023-06-04T10:16:54.529Z,23.60
2023-06-04T10:19:25.042Z,23.70
2023-06-04T10:21:53.085Z,24.10
2023-06-04T10:24:22.040Z,24.20
2023-06-04T10:26:53.392Z,24.10
2023-06-04T10:29:23.674Z,24.20
2023-06-04T10:31:56.371Z,24.20
2023-06-04T10:34:24.481Z,24.40
2023-06-04T10:36:52.501Z,24.50
2023-06-04T10:39:28.686Z,24.60
2023-06-04T10:42:02.444Z,24.70
2023-06-04T10:44:31.528Z,24.70
2023-06-04T10:47:00.039Z,24.90
2023-06-04T10:49:29.421Z,24.90
2023-06-04T10:51:58.289Z,24.70
2023-06-04T10:54:27.433Z,24.80
2023-06-04T10:56:55.715Z,24.70
2023-06-04T10:59:25.434Z,24.60
2023-06-04T11:01:53.878Z,24.70
2023-06-04T11:04:23.960Z,24.90
2023-06-04T11:07:04.467Z,25.20
2023-06-04T11:09:34.467Z,25.40
2023-06-04T11:12:03.088Z,25.70
2023-06-04T11:14:32.468Z,26.00
2023-06-04T11:17:11.500Z,26.20
2023-06-04T11:19:40.149Z,26.40
2023-06-04T11:22:12.331Z,26.80
2023-06-04T11:24:40.365Z,27.40
2023-06-04T11:27:12.829Z,28.30
2023-06-04T11:29:51.621Z,29.50
2023-06-04T11:32:24.241Z,31.20
2023-06-04T11:34:52.352Z,31.90
2023-06-04T11:37:20.279Z,33.50
2023-06-04T11:39:48.174Z,34.40
2023-06-04T11:42:17.006Z,34.90
2023-06-04T11:44:49.911Z,34.10
2023-06-04T11:47:17.991Z,33.90
2023-06-04T11:49:46.060Z,33.40
2023-06-04T11:52:14.141Z,33.80
2023-06-04T11:54:42.342Z,34.30
2023-06-04T11:57:10.290Z,34.90
2023-06-04T11:59:38.842Z,34.90
2023-06-04T12:02:09.220Z,35.20
2023-06-04T12:04:37.212Z,36.30
2023-06-04T12:07:06.414Z,35.20
2023-06-04T12:09:35.949Z,35.50
2023-06-04T12:12:05.241Z,35.70
2023-06-04T12:14:33.517Z,36.10
2023-06-04T12:17:02.409Z,36.90
2023-06-04T12:19:32.572Z,37.10
2023-06-04T12:22:05.576Z,36.10
2023-06-04T12:24:37.034Z,35.20
2023-06-04T12:27:06.698Z,35.50
2023-06-04T12:29:35.033Z,34.70
2023-06-04T12:32:11.973Z,34.00
2023-06-04T12:34:42.814Z,34.50
2023-06-04T12:37:11.044Z,34.40
2023-06-04T12:39:39.033Z,34.40
2023-06-04T12:42:09.383Z,35.00
2023-06-04T12:44:37.745Z,35.70
2023-06-04T12:47:06.243Z,36.60
2023-06-04T12:49:34.309Z,37.70
2023-06-04T12:52:03.676Z,37.60
2023-06-04T12:54:31.620Z,36.60
2023-06-04T12:57:00.716Z,37.40
2023-06-04T12:59:29.650Z,37.70
2023-06-04T13:01:57.830Z,37.70
2023-06-04T13:04:26.238Z,37.20
2023-06-04T13:06:59.825Z,36.70
2023-06-04T13:09:30.185Z,37.10
2023-06-04T13:11:58.363Z,36.70
2023-06-04T13:14:26.232Z,37.00
2023-06-04T13:16:54.219Z,37.80
2023-06-04T13:19:22.559Z,38.40
2023-06-04T13:21:50.489Z,38.70
2023-06-04T13:24:18.496Z,38.30
2023-06-04T13:26:47.766Z,37.80
2023-06-04T13:29:17.308Z,37.20
2023-06-04T13:31:45.318Z,37.50
2023-06-04T13:34:27.047Z,38.20
2023-06-04T13:36:57.171Z,37.80
2023-06-04T13:39:25.036Z,38.30
2023-06-04T13:41:54.256Z,37.30
2023-06-04T13:44:27.117Z,35.70
2023-06-04T13:46:55.274Z,35.10
2023-06-04T13:49:23.269Z,34.90
2023-06-04T13:51:51.117Z,34.80
2023-06-04T13:54:19.068Z,34.70
2023-06-04T13:56:47.047Z,34.60
2023-06-04T13:59:16.361Z,35.50
2023-06-04T14:01:44.369Z,35.60
2023-06-04T14:04:12.727Z,35.90
2023-06-04T14:06:40.688Z,36.00
2023-06-04T14:09:10.270Z,36.00
2023-06-04T14:11:40.788Z,35.80
2023-06-04T14:14:08.981Z,36.10
2023-06-04T14:16:38.265Z,35.90
2023-06-04T14:19:06.175Z,35.60
2023-06-04T14:21:34.038Z,35.10
2023-06-04T14:24:02.043Z,34.50
2023-06-04T14:26:30.336Z,34.70
2023-06-04T14:28:58.488Z,35.10
2023-06-04T14:31:26.567Z,35.30
2023-06-04T14:33:55.882Z,34.50
2023-06-04T14:36:23.777Z,33.90
2023-06-04T14:38:51.676Z,33.20
2023-06-04T14:41:19.560Z,32.20
2023-06-04T14:43:47.489Z,31.60
2023-06-04T14:46:15.410Z,30.90
2023-06-04T14:48:43.466Z,30.10
2023-06-04T14:51:12.751Z,29.50
2023-06-04T14:53:40.998Z,28.80
2023-06-04T14:56:09.259Z,28.90
2023-06-04T14:58:37.162Z,28.60
2023-06-04T15:01:05.533Z,28.60
2023-06-04T15:03:34.073Z,28.50
2023-06-04T15:06:18.192Z,28.50
2023-06-04T15:08:48.470Z,28.00
2023-06-04T15:11:16.945Z,27.90
2023-06-04T15:13:44.887Z,27.90
2023-06-04T15:16:13.042Z,28.00
2023-06-04T15:18:41.214Z,28.00
2023-06-04T15:21:09.538Z,27.90
2023-06-04T15:23:38.080Z,28.00
2023-06-04T15:26:07.469Z,27.90
2023-06-04T15:28:35.368Z,27.80
2023-06-04T15:31:03.325Z,27.80
2023-06-04T15:33:31.245Z,27.70
2023-06-04T15:36:00.372Z,27.50
2023-06-04T15:38:30.627Z,27.20
2023-06-04T15:40:59.703Z,27.20
2023-06-04T15:43:29.011Z,27.30
2023-06-04T15:45:57.105Z,27.40
2023-06-04T15:48:28.488Z,27.50
2023-06-04T15:50:56.513Z,27.60
2023-06-04T15:53:24.933Z,27.80
2023-06-04T15:55:52.923Z,27.90
2023-06-04T15:58:21.099Z,28.00
2023-06-04T16:00:50.453Z,28.00
2023-06-04T16:03:19.817Z,27.80
2023-06-04T16:05:47.861Z,27.60
2023-06-04T16:08:16.581Z,27.40
2023-06-04T16:10:45.918Z,27.40
2023-06-04T16:13:14.018Z,27.50
2023-06-04T16:15:43.068Z,27.60
2023-06-04T16:18:12.350Z,27.70
2023-06-04T16:20:40.336Z,27.70
2023-06-04T16:23:08.325Z,27.60
2023-06-04T16:25:37.399Z,27.60
2023-06-04T16:28:05.404Z,27.50
2023-06-04T16:30:33.391Z,27.60
2023-06-04T16:33:01.427Z,27.70
2023-06-04T16:35:31.542Z,27.90
2023-06-04T16:37:59.489Z,28.10
2023-06-04T16:40:27.450Z,28.10
2023-06-04T16:42:55.485Z,27.90
2023-06-04T16:45:23.970Z,27.60
2023-06-04T16:47:51.933Z,27.60
2023-06-04T16:50:20.489Z,27.80
2023-06-04T16:52:49.704Z,27.90
2023-06-04T16:55:18.087Z,28.10
2023-06-04T16:57:46.000Z,28.10
2023-06-04T17:00:25.668Z,28.20
2023-06-04T17:02:56.515Z,27.90
2023-06-04T17:05:25.730Z,28.00
2023-06-04T17:07:55.549Z,28.20
2023-06-04T17:10:25.990Z,28.30
2023-06-04T17:12:53.940Z,28.40
2023-06-04T17:15:21.782Z,28.30
2023-06-04T17:17:51.396Z,28.00
2023-06-04T17:20:19.586Z,28.00
2023-06-04T17:22:47.502Z,27.90
2023-06-04T17:25:16.954Z,28.10
2023-06-04T17:27:45.225Z,28.00
2023-06-04T17:30:13.705Z,27.80
2023-06-04T17:32:42.115Z,27.40
2023-06-04T17:35:11.538Z,27.40
2023-06-04T17:37:39.534Z,27.30
2023-06-04T17:40:08.876Z,27.30
2023-06-04T17:42:38.529Z,27.30
2023-06-04T17:45:11.827Z,27.30
2023-06-04T17:47:40.052Z,27.40
2023-06-04T17:50:09.506Z,27.40
2023-06-04T17:52:37.509Z,27.60
2023-06-04T17:55:06.237Z,27.60
2023-06-04T17:57:34.269Z,27.50
2023-06-04T18:00:04.357Z,27.40
2023-06-04T18:02:32.369Z,27.40
2023-06-04T18:05:00.440Z,27.40
2023-06-04T18:07:28.341Z,27.40
2023-06-04T18:09:56.273Z,27.30
2023-06-04T18:12:24.258Z,27.20
2023-06-04T18:14:52.210Z,26.90
2023-06-04T18:17:21.499Z,26.60
2023-06-04T18:19:49.873Z,26.40
2023-06-04T18:22:17.857Z,26.10
2023-06-04T18:24:45.817Z,25.90
2023-06-04T18:27:13.738Z,25.60
2023-06-04T18:29:42.096Z,25.40
2023-06-04T18:32:10.122Z,25.30
2023-06-04T18:34:39.370Z,25.10
2023-06-04T18:37:07.330Z,25.00
2023-06-04T18:39:35.232Z,24.90
2023-06-04T18:42:05.663Z,24.80
2023-06-04T18:44:39.869Z,24.80
2023-06-04T18:47:08.050Z,24.70
2023-06-04T18:49:36.095Z,24.70
2023-06-04T18:52:06.027Z,24.60
2023-06-04T18:54:34.779Z,24.60
2023-06-04T18:57:02.821Z,24.50
2023-06-04T18:59:30.791Z,24.50
2023-06-04T19:01:58.865Z,24.40
2023-06-04T19:04:26.879Z,24.30
2023-06-04T19:06:54.811Z,24.20
2023-06-04T19:09:24.066Z,24.10
2023-06-04T19:11:51.920Z,24.10
2023-06-04T19:14:19.807Z,24.10
2023-06-04T19:16:49.970Z,24.00
2023-06-04T19:19:21.186Z,24.00
2023-06-04T19:21:52.660Z,23.90
2023-06-04T19:24:21.665Z,23.80
2023-06-04T19:26:51.771Z,23.80
2023-06-04T19:29:19.970Z,23.80
2023-06-04T19:31:48.282Z,23.80
2023-06-04T19:34:16.252Z,23.70
2023-06-04T19:36:44.192Z,23.60
2023-06-04T19:39:12.171Z,23.60
2023-06-04T19:41:40.894Z,23.60
2023-06-04T19:44:11.130Z,23.50
2023-06-04T19:46:41.937Z,23.50
2023-06-04T19:49:10.440Z,23.50
2023-06-04T19:51:39.040Z,23.50
2023-06-04T19:54:07.487Z,23.50
2023-06-04T19:56:38.575Z,23.50
2023-06-04T19:59:07.334Z,23.40
2023-06-04T20:01:37.770Z,23.40
2023-06-04T20:04:05.945Z,23.30
2023-06-04T20:06:34.141Z,23.20
2023-06-04T20:09:02.460Z,23.20
2023-06-04T20:11:31.180Z,23.10
2023-06-04T20:13:59.038Z,23.00
2023-06-04T20:16:26.991Z,22.80
2023-06-04T20:18:56.586Z,22.70
2023-06-04T20:21:24.544Z,22.60
2023-06-04T20:24:01.641Z,22.50
2023-06-04T20:26:29.619Z,22.40
2023-06-04T20:28:57.912Z,22.20
2023-06-04T20:31:26.787Z,22.10
2023-06-04T20:33:56.879Z,22.00
2023-06-04T20:36:24.948Z,22.00
2023-06-04T20:38:53.069Z,21.90
2023-06-04T20:41:23.090Z,21.80
2023-06-04T20:43:55.369Z,21.80
2023-06-04T20:46:23.512Z,21.70
2023-06-04T20:48:52.078Z,21.70
2023-06-04T20:51:21.594Z,21.60
2023-06-04T20:53:51.773Z,21.50
2023-06-04T20:56:19.769Z,21.50
2023-06-04T20:58:48.893Z,21.40
2023-06-04T21:01:16.960Z,21.30
2023-06-04T21:03:45.063Z,21.30
2023-06-04T21:06:14.513Z,21.20
2023-06-04T21:08:43.828Z,21.20
2023-06-04T21:11:11.822Z,21.10
2023-06-04T21:13:39.722Z,21.10
2023-06-04T21:16:07.655Z,21.00
2023-06-04T21:18:35.640Z,20.90
2023-06-04T21:21:03.556Z,20.80
2023-06-04T21:23:31.485Z,20.70
2023-06-04T21:26:00.877Z,20.60
2023-06-04T21:28:28.734Z,20.50
2023-06-04T21:30:56.610Z,20.50
2023-06-04T21:33:24.959Z,20.40
2023-06-04T21:35:52.821Z,20.40
2023-06-04T21:38:20.756Z,20.40
2023-06-04T21:40:48.812Z,20.30
2023-06-04T21:43:19.374Z,20.30
2023-06-04T21:45:47.944Z,20.20
2023-06-04T21:48:16.019Z,20.20
2023-06-04T21:50:44.084Z,20.10
2023-06-04T21:53:12.013Z,20.10
2023-06-04T21:55:39.878Z,20.10
2023-06-04T21:58:07.850Z,20.10
2023-06-04T22:00:37.117Z,20.10
2023-06-04T22:03:05.257Z,20.00
2023-06-04T22:05:33.283Z,20.00
2023-06-04T22:08:02.059Z,20.00
2023-06-04T22:10:30.091Z,20.00
2023-06-04T22:12:57.991Z,19.90
2023-06-04T22:15:25.939Z,19.90
2023-06-04T22:17:56.380Z,19.90
2023-06-04T22:20:26.346Z,19.90
2023-06-04T22:22:54.257Z,19.80
2023-06-04T22:25:22.325Z,19.80
2023-06-04T22:27:50.263Z,19.80
2023-06-04T22:30:18.300Z,19.70
2023-06-04T22:32:46.177Z,19.70
2023-06-04T22:35:15.594Z,19.60
2023-06-04T22:37:43.800Z,19.60
2023-06-04T22:40:12.187Z,19.60
2023-06-04T22:42:40.055Z,19.60
2023-06-04T22:45:09.260Z,19.50
2023-06-04T22:47:37.262Z,19.40
2023-06-04T22:50:06.640Z,19.30
2023-06-04T22:52:38.806Z,19.20
2023-06-04T22:55:08.253Z,19.00
2023-06-04T22:57:36.220Z,18.90
2023-06-04T23:00:04.499Z,18.70
2023-06-04T23:02:33.335Z,18.60
2023-06-04T23:05:01.661Z,18.50
2023-06-04T23:07:29.498Z,18.40
2023-06-04T23:09:58.820Z,18.30
2023-06-04T23:12:26.824Z,18.20
2023-06-04T23:14:54.790Z,18.20
2023-06-04T23:17:22.713Z,18.10
2023-06-04T23:19:50.701Z,18.00
2023-06-04T23:22:18.667Z,17.90
2023-06-04T23:24:46.648Z,17.90
2023-06-04T23:27:15.983Z,18.00
2023-06-04T23:29:45.453Z,18.00
2023-06-04T23:32:13.428Z,17.90
2023-06-04T23:34:41.353Z,17.90
2023-06-04T23:37:09.457Z,17.80
2023-06-04T23:39:37.582Z,17.80
2023-06-04T23:42:05.857Z,17.70
2023-06-04T23:44:35.141Z,17.70
2023-06-04T23:47:03.092Z,17.60
2023-06-04T23:49:30.949Z,17.50
2023-06-04T23:51:58.949Z,17.40
2023-06-04T23:54:26.939Z,17.40
2023-06-04T23:56:54.842Z,17.40
2023-06-04T23:59:22.878Z,17.40
